sensor_id;sensor_type;location;lat;lon;timestamp;P1;durP1;ratioP1;P2;durP2;ratioP2
19084;SDS011;9675;51.538;6.728;2024-02-15T00:01:14;11.80;;;6.13;;
19084;SDS011;9675;51.538;6.728;2024-02-15T00:03:41;12.70;;;6.80;;
19084;SDS011;9675;51.538;6.728;2024-02-15T00:06:08;17.23;;;6.03;;
19084;SDS011;9675;51.538;6.728;2024-02-15T00:08:35;9.20;;;6.27;;
19084;SDS011;9675;51.538;6.728;2024-02-15T00:11:03;8.37;;;5.13;;
19084;SDS011;9675;51.538;6.728;2024-02-15T00:13:31;12.07;;;6.67;;
19084;SDS011;9675;51.538;6.728;2024-02-15T00:15:59;10.33;;;5.90;;
19084;SDS011;9675;51.538;6.728;2024-02-15T00:18:26;13.50;;;7.00;;
19084;SDS011;9675;51.538;6.728;2024-02-15T00:20:53;14.33;;;6.37;;
19084;SDS011;9675;51.538;6.728;2024-02-15T00:23:20;17.60;;;6.10;;
19084;SDS011;9675;51.538;6.728;2024-02-15T00:25:47;14.23;;;5.77;;
19084;SDS011;9675;51.538;6.728;2024-02-15T00:28:15;11.47;;;5.57;;
19084;SDS011;9675;51.538;6.728;2024-02-15T00:30:43;16.70;;;6.30;;
19084;SDS011;9675;51.538;6.728;2024-02-15T00:33:10;13.27;;;6.43;;
19084;SDS011;9675;51.538;6.728;2024-02-15T00:35:37;14.33;;;6.27;;
19084;SDS011;9675;51.538;6.728;2024-02-15T00:38:04;14.70;;;5.87;;
19084;SDS011;9675;51.538;6.728;2024-02-15T00:40:32;11.30;;;6.03;;
19084;SDS011;9675;51.538;6.728;2024-02-15T00:42:59;15.27;;;7.27;;
19084;SDS011;9675;51.538;6.728;2024-02-15T00:45:26;13.73;;;6.40;;
19084;SDS011;9675;51.538;6.728;2024-02-15T00:47:55;14.63;;;8.03;;
19084;SDS011;9675;51.538;6.728;2024-02-15T00:50:22;14.10;;;7.10;;
19084;SDS011;9675;51.538;6.728;2024-02-15T00:52:49;13.97;;;6.43;;
19084;SDS011;9675;51.538;6.728;2024-02-15T00:55:16;9.23;;;5.30;;
19084;SDS011;9675;51.538;6.728;2024-02-15T00:57:44;12.60;;;5.93;;
19084;SDS011;9675;51.538;6.728;2024-02-15T01:00:11;11.90;;;6.03;;
19084;SDS011;9675;51.538;6.728;2024-02-15T01:02:39;10.23;;;5.67;;
19084;SDS011;9675;51.538;6.728;2024-02-15T01:05:08;13.90;;;6.67;;
19084;SDS011;9675;51.538;6.728;2024-02-15T01:07:35;10.90;;;5.83;;
19084;SDS011;9675;51.538;6.728;2024-02-15T01:10:03;13.57;;;6.43;;
19084;SDS011;9675;51.538;6.728;2024-02-15T01:12:31;8.53;;;5.37;;
19084;SDS011;9675;51.538;6.728;2024-02-15T01:14:59;15.73;;;6.00;;
19084;SDS011;9675;51.538;6.728;2024-02-15T01:17:26;9.73;;;5.97;;
19084;SDS011;9675;51.538;6.728;2024-02-15T01:19:53;9.17;;;5.77;;
19084;SDS011;9675;51.538;6.728;2024-02-15T01:22:21;8.33;;;5.50;;
19084;SDS011;9675;51.538;6.728;2024-02-15T01:24:52;11.13;;;5.83;;
19084;SDS011;9675;51.538;6.728;2024-02-15T01:27:19;14.57;;;5.87;;
19084;SDS011;9675;51.538;6.728;2024-02-15T01:29:46;15.30;;;6.63;;
19084;SDS011;9675;51.538;6.728;2024-02-15T01:32:13;10.70;;;5.30;;
19084;SDS011;9675;51.538;6.728;2024-02-15T01:34:40;11.60;;;6.00;;
19084;SDS011;9675;51.538;6.728;2024-02-15T01:37:07;16.33;;;5.93;;
19084;SDS011;9675;51.538;6.728;2024-02-15T01:39:35;14.93;;;6.37;;
19084;SDS011;9675;51.538;6.728;2024-02-15T01:42:01;11.03;;;5.77;;
19084;SDS011;9675;51.538;6.728;2024-02-15T01:44:29;14.87;;;5.83;;
19084;SDS011;9675;51.538;6.728;2024-02-15T01:46:56;18.73;;;6.47;;
19084;SDS011;9675;51.538;6.728;2024-02-15T01:49:24;11.63;;;5.73;;
19084;SDS011;9675;51.538;6.728;2024-02-15T01:51:53;15.27;;;6.30;;
19084;SDS011;9675;51.538;6.728;2024-02-15T01:54:24;12.63;;;5.97;;
19084;SDS011;9675;51.538;6.728;2024-02-15T01:56:53;16.27;;;5.60;;
19084;SDS011;9675;51.538;6.728;2024-02-15T01:59:21;12.07;;;5.70;;
19084;SDS011;9675;51.538;6.728;2024-02-15T02:01:51;12.67;;;5.50;;
19084;SDS011;9675;51.538;6.728;2024-02-15T02:04:18;10.80;;;5.00;;
19084;SDS011;9675;51.538;6.728;2024-02-15T02:06:45;13.47;;;5.50;;
19084;SDS011;9675;51.538;6.728;2024-02-15T02:09:13;14.00;;;6.07;;
19084;SDS011;9675;51.538;6.728;2024-02-15T02:11:41;13.73;;;5.53;;
19084;SDS011;9675;51.538;6.728;2024-02-15T02:14:12;12.17;;;5.03;;
19084;SDS011;9675;51.538;6.728;2024-02-15T02:16:39;11.67;;;5.33;;
19084;SDS011;9675;51.538;6.728;2024-02-15T02:19:07;11.33;;;4.87;;
19084;SDS011;9675;51.538;6.728;2024-02-15T02:21:34;10.37;;;5.47;;
19084;SDS011;9675;51.538;6.728;2024-02-15T02:24:04;18.30;;;5.97;;
19084;SDS011;9675;51.538;6.728;2024-02-15T02:26:40;16.10;;;5.77;;
19084;SDS011;9675;51.538;6.728;2024-02-15T02:29:08;15.57;;;6.30;;
19084;SDS011;9675;51.538;6.728;2024-02-15T02:31:35;19.43;;;6.33;;
19084;SDS011;9675;51.538;6.728;2024-02-15T02:34:03;15.30;;;6.10;;
19084;SDS011;9675;51.538;6.728;2024-02-15T02:36:31;14.90;;;5.93;;
19084;SDS011;9675;51.538;6.728;2024-02-15T02:38:58;13.83;;;5.93;;
19084;SDS011;9675;51.538;6.728;2024-02-15T02:41:26;17.43;;;7.47;;
19084;SDS011;9675;51.538;6.728;2024-02-15T02:43:56;18.37;;;6.23;;
19084;SDS011;9675;51.538;6.728;2024-02-15T02:46:23;16.33;;;5.77;;
19084;SDS011;9675;51.538;6.728;2024-02-15T02:48:50;20.50;;;7.43;;
19084;SDS011;9675;51.538;6.728;2024-02-15T02:51:18;16.47;;;5.73;;
19084;SDS011;9675;51.538;6.728;2024-02-15T02:53:45;20.53;;;7.93;;
19084;SDS011;9675;51.538;6.728;2024-02-15T02:56:12;20.10;;;5.80;;
19084;SDS011;9675;51.538;6.728;2024-02-15T02:58:39;15.13;;;6.17;;
19084;SDS011;9675;51.538;6.728;2024-02-15T03:01:08;11.93;;;5.90;;
19084;SDS011;9675;51.538;6.728;2024-02-15T03:03:36;12.37;;;5.17;;
19084;SDS011;9675;51.538;6.728;2024-02-15T03:06:04;14.97;;;5.10;;
19084;SDS011;9675;51.538;6.728;2024-02-15T03:08:32;14.20;;;6.07;;
19084;SDS011;9675;51.538;6.728;2024-02-15T03:10:59;17.10;;;6.13;;
19084;SDS011;9675;51.538;6.728;2024-02-15T03:13:27;10.63;;;5.03;;
19084;SDS011;9675;51.538;6.728;2024-02-15T03:15:54;12.63;;;4.83;;
19084;SDS011;9675;51.538;6.728;2024-02-15T03:18:22;8.07;;;4.13;;
19084;SDS011;9675;51.538;6.728;2024-02-15T03:20:49;20.20;;;5.10;;
19084;SDS011;9675;51.538;6.728;2024-02-15T03:23:16;14.90;;;5.60;;
19084;SDS011;9675;51.538;6.728;2024-02-15T03:25:43;11.80;;;4.70;;
19084;SDS011;9675;51.538;6.728;2024-02-15T03:28:10;11.73;;;5.10;;
19084;SDS011;9675;51.538;6.728;2024-02-15T03:30:37;11.47;;;4.63;;
19084;SDS011;9675;51.538;6.728;2024-02-15T03:33:04;12.23;;;5.17;;
19084;SDS011;9675;51.538;6.728;2024-02-15T03:35:33;13.57;;;4.93;;
19084;SDS011;9675;51.538;6.728;2024-02-15T03:38:00;12.20;;;5.60;;
19084;SDS011;9675;51.538;6.728;2024-02-15T03:40:27;10.93;;;3.97;;
19084;SDS011;9675;51.538;6.728;2024-02-15T03:42:55;18.47;;;4.57;;
19084;SDS011;9675;51.538;6.728;2024-02-15T03:45:22;11.90;;;4.17;;
19084;SDS011;9675;51.538;6.728;2024-02-15T03:47:50;13.87;;;4.83;;
19084;SDS011;9675;51.538;6.728;2024-02-15T03:50:17;12.60;;;4.40;;
19084;SDS011;9675;51.538;6.728;2024-02-15T03:52:48;14.30;;;4.30;;
19084;SDS011;9675;51.538;6.728;2024-02-15T03:55:16;11.43;;;5.00;;
19084;SDS011;9675;51.538;6.728;2024-02-15T03:57:43;12.03;;;4.33;;
19084;SDS011;9675;51.538;6.728;2024-02-15T04:00:11;14.13;;;6.17;;
19084;SDS011;9675;51.538;6.728;2024-02-15T04:02:45;16.73;;;4.97;;
19084;SDS011;9675;51.538;6.728;2024-02-15T04:05:14;14.00;;;5.07;;
19084;SDS011;9675;51.538;6.728;2024-02-15T04:07:43;13.60;;;4.57;;
19084;SDS011;9675;51.538;6.728;2024-02-15T04:10:11;9.47;;;3.57;;
19084;SDS011;9675;51.538;6.728;2024-02-15T04:12:39;12.50;;;4.63;;
19084;SDS011;9675;51.538;6.728;2024-02-15T04:15:08;13.73;;;4.77;;
19084;SDS011;9675;51.538;6.728;2024-02-15T04:17:38;10.17;;;4.30;;
19084;SDS011;9675;51.538;6.728;2024-02-15T04:20:07;12.73;;;4.23;;
19084;SDS011;9675;51.538;6.728;2024-02-15T04:22:36;14.37;;;4.50;;
19084;SDS011;9675;51.538;6.728;2024-02-15T04:25:04;11.07;;;3.70;;
19084;SDS011;9675;51.538;6.728;2024-02-15T04:27:36;15.77;;;3.83;;
19084;SDS011;9675;51.538;6.728;2024-02-15T04:30:03;14.10;;;4.47;;
19084;SDS011;9675;51.538;6.728;2024-02-15T04:32:34;12.80;;;4.10;;
19084;SDS011;9675;51.538;6.728;2024-02-15T04:35:02;6.80;;;3.63;;
19084;SDS011;9675;51.538;6.728;2024-02-15T04:37:30;12.83;;;4.23;;
19084;SDS011;9675;51.538;6.728;2024-02-15T04:39:59;11.83;;;4.47;;
19084;SDS011;9675;51.538;6.728;2024-02-15T04:42:33;9.80;;;4.33;;
19084;SDS011;9675;51.538;6.728;2024-02-15T04:45:04;17.53;;;4.63;;
19084;SDS011;9675;51.538;6.728;2024-02-15T04:47:35;11.10;;;4.17;;
19084;SDS011;9675;51.538;6.728;2024-02-15T04:50:02;15.80;;;3.67;;
19084;SDS011;9675;51.538;6.728;2024-02-15T04:52:31;10.60;;;3.43;;
19084;SDS011;9675;51.538;6.728;2024-02-15T04:54:58;8.37;;;3.27;;
19084;SDS011;9675;51.538;6.728;2024-02-15T04:57:25;11.67;;;4.30;;
19084;SDS011;9675;51.538;6.728;2024-02-15T04:59:54;7.93;;;3.80;;
19084;SDS011;9675;51.538;6.728;2024-02-15T05:02:21;8.70;;;3.00;;
19084;SDS011;9675;51.538;6.728;2024-02-15T05:04:49;9.27;;;3.70;;
19084;SDS011;9675;51.538;6.728;2024-02-15T05:07:20;10.47;;;3.33;;
19084;SDS011;9675;51.538;6.728;2024-02-15T05:09:47;13.73;;;4.83;;
19084;SDS011;9675;51.538;6.728;2024-02-15T05:12:21;12.83;;;4.73;;
19084;SDS011;9675;51.538;6.728;2024-02-15T05:14:49;10.10;;;3.30;;
19084;SDS011;9675;51.538;6.728;2024-02-15T05:17:19;10.63;;;3.53;;
19084;SDS011;9675;51.538;6.728;2024-02-15T05:19:46;11.13;;;3.83;;
19084;SDS011;9675;51.538;6.728;2024-02-15T05:22:13;8.10;;;3.27;;
19084;SDS011;9675;51.538;6.728;2024-02-15T05:24:41;9.23;;;3.13;;
19084;SDS011;9675;51.538;6.728;2024-02-15T05:27:08;7.40;;;3.20;;
19084;SDS011;9675;51.538;6.728;2024-02-15T05:29:35;8.43;;;2.77;;
19084;SDS011;9675;51.538;6.728;2024-02-15T05:32:02;8.33;;;3.70;;
19084;SDS011;9675;51.538;6.728;2024-02-15T05:34:31;9.60;;;3.00;;
19084;SDS011;9675;51.538;6.728;2024-02-15T05:36:58;6.17;;;3.87;;
19084;SDS011;9675;51.538;6.728;2024-02-15T05:39:25;6.97;;;3.23;;
19084;SDS011;9675;51.538;6.728;2024-02-15T05:41:52;8.33;;;2.87;;
19084;SDS011;9675;51.538;6.728;2024-02-15T05:44:19;9.97;;;3.77;;
19084;SDS011;9675;51.538;6.728;2024-02-15T05:46:47;10.97;;;3.50;;
19084;SDS011;9675;51.538;6.728;2024-02-15T05:49:14;9.37;;;3.07;;
19084;SDS011;9675;51.538;6.728;2024-02-15T05:51:44;10.87;;;3.47;;
19084;SDS011;9675;51.538;6.728;2024-02-15T05:54:12;6.40;;;2.53;;
19084;SDS011;9675;51.538;6.728;2024-02-15T05:56:39;10.47;;;2.60;;
19084;SDS011;9675;51.538;6.728;2024-02-15T05:59:08;10.17;;;3.17;;
19084;SDS011;9675;51.538;6.728;2024-02-15T06:01:36;7.73;;;2.57;;
19084;SDS011;9675;51.538;6.728;2024-02-15T06:04:04;11.70;;;2.93;;
19084;SDS011;9675;51.538;6.728;2024-02-15T06:06:33;10.90;;;3.83;;
19084;SDS011;9675;51.538;6.728;2024-02-15T06:09:01;9.37;;;3.20;;
19084;SDS011;9675;51.538;6.728;2024-02-15T06:11:29;14.27;;;2.63;;
19084;SDS011;9675;51.538;6.728;2024-02-15T06:13:57;6.97;;;2.97;;
19084;SDS011;9675;51.538;6.728;2024-02-15T06:16:24;9.33;;;3.23;;
19084;SDS011;9675;51.538;6.728;2024-02-15T06:18:51;8.90;;;2.83;;
19084;SDS011;9675;51.538;6.728;2024-02-15T06:21:19;11.47;;;3.00;;
19084;SDS011;9675;51.538;6.728;2024-02-15T06:23:47;15.07;;;2.97;;
19084;SDS011;9675;51.538;6.728;2024-02-15T06:26:16;10.67;;;2.83;;
19084;SDS011;9675;51.538;6.728;2024-02-15T06:28:44;9.63;;;2.90;;
19084;SDS011;9675;51.538;6.728;2024-02-15T06:31:28;5.10;;;2.63;;
19084;SDS011;9675;51.538;6.728;2024-02-15T06:34:15;5.20;;;2.40;;
19084;SDS011;9675;51.538;6.728;2024-02-15T06:36:59;9.57;;;3.07;;
19084;SDS011;9675;51.538;6.728;2024-02-15T06:39:44;18.17;;;5.10;;
19084;SDS011;9675;51.538;6.728;2024-02-15T06:42:13;11.43;;;3.30;;
19084;SDS011;9675;51.538;6.728;2024-02-15T06:44:43;18.97;;;4.77;;
19084;SDS011;9675;51.538;6.728;2024-02-15T06:47:11;12.30;;;4.93;;
19084;SDS011;9675;51.538;6.728;2024-02-15T06:49:43;10.03;;;3.23;;
19084;SDS011;9675;51.538;6.728;2024-02-15T06:52:15;8.53;;;3.73;;
19084;SDS011;9675;51.538;6.728;2024-02-15T06:54:42;13.33;;;4.13;;
19084;SDS011;9675;51.538;6.728;2024-02-15T06:57:10;10.20;;;3.20;;
19084;SDS011;9675;51.538;6.728;2024-02-15T06:59:40;5.83;;;2.87;;
19084;SDS011;9675;51.538;6.728;2024-02-15T07:02:07;10.53;;;3.33;;
19084;SDS011;9675;51.538;6.728;2024-02-15T07:04:35;9.00;;;3.10;;
19084;SDS011;9675;51.538;6.728;2024-02-15T07:07:02;10.43;;;3.87;;
19084;SDS011;9675;51.538;6.728;2024-02-15T07:09:29;8.70;;;3.23;;
19084;SDS011;9675;51.538;6.728;2024-02-15T07:11:57;9.10;;;3.23;;
19084;SDS011;9675;51.538;6.728;2024-02-15T07:14:25;9.73;;;3.30;;
19084;SDS011;9675;51.538;6.728;2024-02-15T07:16:53;6.93;;;2.97;;
19084;SDS011;9675;51.538;6.728;2024-02-15T07:19:22;9.13;;;3.83;;
19084;SDS011;9675;51.538;6.728;2024-02-15T07:21:50;7.30;;;3.50;;
19084;SDS011;9675;51.538;6.728;2024-02-15T07:24:17;13.07;;;3.80;;
19084;SDS011;9675;51.538;6.728;2024-02-15T07:26:44;16.47;;;5.10;;
19084;SDS011;9675;51.538;6.728;2024-02-15T07:29:11;14.23;;;3.80;;
19084;SDS011;9675;51.538;6.728;2024-02-15T07:31:41;14.27;;;4.80;;
19084;SDS011;9675;51.538;6.728;2024-02-15T07:34:08;22.83;;;5.90;;
19084;SDS011;9675;51.538;6.728;2024-02-15T07:36:36;11.93;;;5.03;;
19084;SDS011;9675;51.538;6.728;2024-02-15T07:39:07;13.60;;;4.50;;
19084;SDS011;9675;51.538;6.728;2024-02-15T07:41:37;10.03;;;4.30;;
19084;SDS011;9675;51.538;6.728;2024-02-15T07:44:04;9.77;;;3.97;;
19084;SDS011;9675;51.538;6.728;2024-02-15T07:46:32;8.67;;;3.63;;
19084;SDS011;9675;51.538;6.728;2024-02-15T07:49:01;8.03;;;3.23;;
19084;SDS011;9675;51.538;6.728;2024-02-15T07:51:28;10.50;;;3.17;;
19084;SDS011;9675;51.538;6.728;2024-02-15T07:53:55;6.17;;;2.40;;
19084;SDS011;9675;51.538;6.728;2024-02-15T07:56:22;8.87;;;2.63;;
19084;SDS011;9675;51.538;6.728;2024-02-15T07:58:49;7.77;;;3.10;;
19084;SDS011;9675;51.538;6.728;2024-02-15T08:01:17;6.73;;;2.63;;
19084;SDS011;9675;51.538;6.728;2024-02-15T08:03:45;9.87;;;2.63;;
19084;SDS011;9675;51.538;6.728;2024-02-15T08:06:14;7.97;;;2.37;;
19084;SDS011;9675;51.538;6.728;2024-02-15T08:08:43;5.40;;;2.87;;
19084;SDS011;9675;51.538;6.728;2024-02-15T08:11:12;6.03;;;2.70;;
19084;SDS011;9675;51.538;6.728;2024-02-15T08:13:42;5.90;;;2.87;;
19084;SDS011;9675;51.538;6.728;2024-02-15T08:16:10;7.97;;;2.70;;
19084;SDS011;9675;51.538;6.728;2024-02-15T08:18:41;8.03;;;3.60;;
19084;SDS011;9675;51.538;6.728;2024-02-15T08:21:08;8.80;;;3.43;;
19084;SDS011;9675;51.538;6.728;2024-02-15T08:23:38;8.13;;;3.40;;
19084;SDS011;9675;51.538;6.728;2024-02-15T08:26:05;7.07;;;3.37;;
19084;SDS011;9675;51.538;6.728;2024-02-15T08:28:32;7.57;;;3.87;;
19084;SDS011;9675;51.538;6.728;2024-02-15T08:30:59;8.30;;;3.40;;
19084;SDS011;9675;51.538;6.728;2024-02-15T08:33:26;10.27;;;3.63;;
19084;SDS011;9675;51.538;6.728;2024-02-15T08:35:53;10.73;;;3.50;;
19084;SDS011;9675;51.538;6.728;2024-02-15T08:38:21;8.50;;;2.87;;
19084;SDS011;9675;51.538;6.728;2024-02-15T08:40:49;9.20;;;3.90;;
19084;SDS011;9675;51.538;6.728;2024-02-15T08:43:16;11.43;;;3.03;;
19084;SDS011;9675;51.538;6.728;2024-02-15T08:45:44;6.83;;;2.77;;
19084;SDS011;9675;51.538;6.728;2024-02-15T08:48:11;8.53;;;4.20;;
19084;SDS011;9675;51.538;6.728;2024-02-15T08:50:38;7.90;;;3.70;;
19084;SDS011;9675;51.538;6.728;2024-02-15T08:53:06;9.03;;;3.60;;
19084;SDS011;9675;51.538;6.728;2024-02-15T08:55:34;10.67;;;3.50;;
19084;SDS011;9675;51.538;6.728;2024-02-15T08:58:03;9.43;;;4.37;;
19084;SDS011;9675;51.538;6.728;2024-02-15T09:00:30;14.80;;;5.40;;
19084;SDS011;9675;51.538;6.728;2024-02-15T09:02:57;11.57;;;5.00;;
19084;SDS011;9675;51.538;6.728;2024-02-15T09:05:24;10.37;;;4.37;;
19084;SDS011;9675;51.538;6.728;2024-02-15T09:07:51;12.30;;;4.07;;
19084;SDS011;9675;51.538;6.728;2024-02-15T09:10:21;15.97;;;4.13;;
19084;SDS011;9675;51.538;6.728;2024-02-15T09:12:48;8.27;;;2.87;;
19084;SDS011;9675;51.538;6.728;2024-02-15T09:15:17;12.13;;;4.13;;
19084;SDS011;9675;51.538;6.728;2024-02-15T09:17:44;16.03;;;4.50;;
19084;SDS011;9675;51.538;6.728;2024-02-15T09:20:11;8.90;;;4.47;;
19084;SDS011;9675;51.538;6.728;2024-02-15T09:22:47;7.20;;;3.10;;
19084;SDS011;9675;51.538;6.728;2024-02-15T09:25:15;6.97;;;2.33;;
19084;SDS011;9675;51.538;6.728;2024-02-15T09:27:42;9.30;;;3.63;;
19084;SDS011;9675;51.538;6.728;2024-02-15T09:30:11;8.90;;;3.13;;
19084;SDS011;9675;51.538;6.728;2024-02-15T09:32:40;9.23;;;3.70;;
19084;SDS011;9675;51.538;6.728;2024-02-15T09:35:09;15.20;;;3.50;;
19084;SDS011;9675;51.538;6.728;2024-02-15T09:37:42;6.63;;;3.57;;
19084;SDS011;9675;51.538;6.728;2024-02-15T09:40:11;8.13;;;4.17;;
19084;SDS011;9675;51.538;6.728;2024-02-15T09:42:41;6.60;;;3.40;;
19084;SDS011;9675;51.538;6.728;2024-02-15T09:45:10;9.83;;;3.93;;
19084;SDS011;9675;51.538;6.728;2024-02-15T09:47:41;13.83;;;3.67;;
19084;SDS011;9675;51.538;6.728;2024-02-15T09:50:09;12.77;;;3.67;;
19084;SDS011;9675;51.538;6.728;2024-02-15T09:52:39;12.97;;;4.20;;
19084;SDS011;9675;51.538;6.728;2024-02-15T09:55:10;13.33;;;4.50;;
19084;SDS011;9675;51.538;6.728;2024-02-15T09:57:38;20.33;;;6.07;;
19084;SDS011;9675;51.538;6.728;2024-02-15T10:00:07;16.90;;;4.63;;
19084;SDS011;9675;51.538;6.728;2024-02-15T10:02:38;21.70;;;7.53;;
19084;SDS011;9675;51.538;6.728;2024-02-15T10:05:10;14.33;;;5.93;;
19084;SDS011;9675;51.538;6.728;2024-02-15T10:07:38;15.23;;;5.80;;
19084;SDS011;9675;51.538;6.728;2024-02-15T10:10:14;14.20;;;5.37;;
19084;SDS011;9675;51.538;6.728;2024-02-15T10:12:44;12.63;;;5.13;;
19084;SDS011;9675;51.538;6.728;2024-02-15T10:15:21;10.13;;;4.50;;
19084;SDS011;9675;51.538;6.728;2024-02-15T10:17:58;13.97;;;4.63;;
19084;SDS011;9675;51.538;6.728;2024-02-15T10:20:27;10.20;;;4.40;;
19084;SDS011;9675;51.538;6.728;2024-02-15T10:22:58;12.10;;;4.63;;
19084;SDS011;9675;51.538;6.728;2024-02-15T10:25:36;17.67;;;5.50;;
19084;SDS011;9675;51.538;6.728;2024-02-15T10:28:05;9.80;;;4.50;;
19084;SDS011;9675;51.538;6.728;2024-02-15T10:30:34;13.83;;;4.43;;
19084;SDS011;9675;51.538;6.728;2024-02-15T10:33:03;11.70;;;4.50;;
19084;SDS011;9675;51.538;6.728;2024-02-15T10:35:32;19.03;;;4.80;;
19084;SDS011;9675;51.538;6.728;2024-02-15T10:38:06;12.27;;;4.23;;
19084;SDS011;9675;51.538;6.728;2024-02-15T10:40:35;15.03;;;4.13;;
19084;SDS011;9675;51.538;6.728;2024-02-15T10:43:03;13.17;;;3.77;;
19084;SDS011;9675;51.538;6.728;2024-02-15T10:45:31;6.80;;;3.10;;
19084;SDS011;9675;51.538;6.728;2024-02-15T10:48:03;9.30;;;3.50;;
19084;SDS011;9675;51.538;6.728;2024-02-15T10:50:33;10.60;;;2.90;;
19084;SDS011;9675;51.538;6.728;2024-02-15T10:53:02;9.47;;;3.07;;
19084;SDS011;9675;51.538;6.728;2024-02-15T10:55:46;13.87;;;3.57;;
19084;SDS011;9675;51.538;6.728;2024-02-15T10:58:25;8.33;;;3.00;;
19084;SDS011;9675;51.538;6.728;2024-02-15T11:01:00;9.50;;;3.43;;
19084;SDS011;9675;51.538;6.728;2024-02-15T11:03:35;12.27;;;3.67;;
19084;SDS011;9675;51.538;6.728;2024-02-15T11:06:06;12.00;;;3.50;;
19084;SDS011;9675;51.538;6.728;2024-02-15T11:08:35;5.20;;;2.33;;
19084;SDS011;9675;51.538;6.728;2024-02-15T11:11:04;5.20;;;2.33;;
19084;SDS011;9675;51.538;6.728;2024-02-15T11:13:32;9.67;;;2.93;;
19084;SDS011;9675;51.538;6.728;2024-02-15T11:15:59;7.90;;;2.67;;
19084;SDS011;9675;51.538;6.728;2024-02-15T11:18:44;10.20;;;3.50;;
19084;SDS011;9675;51.538;6.728;2024-02-15T11:21:16;8.50;;;3.37;;
19084;SDS011;9675;51.538;6.728;2024-02-15T11:23:44;11.33;;;3.33;;
19084;SDS011;9675;51.538;6.728;2024-02-15T11:32:35;13.23;;;3.03;;
19084;SDS011;9675;51.538;6.728;2024-02-15T11:35:14;10.93;;;2.33;;
19084;SDS011;9675;51.538;6.728;2024-02-15T11:37:48;4.87;;;2.47;;
19084;SDS011;9675;51.538;6.728;2024-02-15T11:43:49;6.10;;;2.80;;
19084;SDS011;9675;51.538;6.728;2024-02-15T11:46:23;8.80;;;3.50;;
19084;SDS011;9675;51.538;6.728;2024-02-15T11:48:55;3.60;;;2.30;;
19084;SDS011;9675;51.538;6.728;2024-02-15T11:51:32;12.47;;;3.00;;
19084;SDS011;9675;51.538;6.728;2024-02-15T11:54:07;7.27;;;2.13;;
19084;SDS011;9675;51.538;6.728;2024-02-15T11:56:52;11.10;;;2.43;;
19084;SDS011;9675;51.538;6.728;2024-02-15T11:59:30;4.67;;;1.57;;
19084;SDS011;9675;51.538;6.728;2024-02-15T12:02:08;8.53;;;1.97;;
19084;SDS011;9675;51.538;6.728;2024-02-15T12:04:52;6.03;;;2.17;;
19084;SDS011;9675;51.538;6.728;2024-02-15T12:07:38;6.63;;;1.93;;
19084;SDS011;9675;51.538;6.728;2024-02-15T12:10:23;8.07;;;2.07;;
19084;SDS011;9675;51.538;6.728;2024-02-15T12:13:07;10.07;;;2.20;;
19084;SDS011;9675;51.538;6.728;2024-02-15T12:15:58;8.47;;;2.13;;
19084;SDS011;9675;51.538;6.728;2024-02-15T12:18:44;16.80;;;7.70;;
19084;SDS011;9675;51.538;6.728;2024-02-15T12:21:17;7.13;;;1.90;;
19084;SDS011;9675;51.538;6.728;2024-02-15T12:23:51;8.70;;;1.60;;
19084;SDS011;9675;51.538;6.728;2024-02-15T12:26:19;6.60;;;2.47;;
19084;SDS011;9675;51.538;6.728;2024-02-15T12:28:51;4.50;;;1.40;;
19084;SDS011;9675;51.538;6.728;2024-02-15T12:31:21;6.53;;;3.17;;
19084;SDS011;9675;51.538;6.728;2024-02-15T12:33:59;9.73;;;3.70;;
19084;SDS011;9675;51.538;6.728;2024-02-15T12:36:28;7.77;;;2.17;;
19084;SDS011;9675;51.538;6.728;2024-02-15T12:39:02;9.50;;;3.43;;
19084;SDS011;9675;51.538;6.728;2024-02-15T12:41:36;6.30;;;1.93;;
19084;SDS011;9675;51.538;6.728;2024-02-15T12:44:05;8.87;;;2.00;;
19084;SDS011;9675;51.538;6.728;2024-02-15T12:46:33;8.30;;;2.57;;
19084;SDS011;9675;51.538;6.728;2024-02-15T12:49:07;9.40;;;4.20;;
19084;SDS011;9675;51.538;6.728;2024-02-15T12:51:38;6.30;;;2.03;;
19084;SDS011;9675;51.538;6.728;2024-02-15T12:54:10;7.33;;;1.90;;
19084;SDS011;9675;51.538;6.728;2024-02-15T12:56:39;7.50;;;2.10;;
19084;SDS011;9675;51.538;6.728;2024-02-15T12:59:06;11.70;;;1.87;;
19084;SDS011;9675;51.538;6.728;2024-02-15T13:01:33;9.67;;;1.90;;
19084;SDS011;9675;51.538;6.728;2024-02-15T13:04:00;8.20;;;1.97;;
19084;SDS011;9675;51.538;6.728;2024-02-15T13:06:27;7.43;;;1.93;;
19084;SDS011;9675;51.538;6.728;2024-02-15T13:08:54;6.37;;;1.50;;
19084;SDS011;9675;51.538;6.728;2024-02-15T13:11:23;5.13;;;1.50;;
19084;SDS011;9675;51.538;6.728;2024-02-15T13:13:51;3.10;;;1.50;;
19084;SDS011;9675;51.538;6.728;2024-02-15T13:16:20;3.13;;;1.23;;
19084;SDS011;9675;51.538;6.728;2024-02-15T13:18:48;4.83;;;1.20;;
19084;SDS011;9675;51.538;6.728;2024-02-15T13:21:17;4.07;;;1.23;;
19084;SDS011;9675;51.538;6.728;2024-02-15T13:23:44;2.33;;;1.00;;
19084;SDS011;9675;51.538;6.728;2024-02-15T13:26:11;5.00;;;1.20;;
19084;SDS011;9675;51.538;6.728;2024-02-15T13:28:41;4.53;;;1.70;;
19084;SDS011;9675;51.538;6.728;2024-02-15T13:31:09;6.80;;;1.47;;
19084;SDS011;9675;51.538;6.728;2024-02-15T13:33:37;7.60;;;1.40;;
19084;SDS011;9675;51.538;6.728;2024-02-15T13:36:05;3.43;;;1.13;;
19084;SDS011;9675;51.538;6.728;2024-02-15T13:38:35;6.23;;;1.53;;
19084;SDS011;9675;51.538;6.728;2024-02-15T13:41:03;6.90;;;1.47;;
19084;SDS011;9675;51.538;6.728;2024-02-15T13:43:30;3.90;;;1.60;;
19084;SDS011;9675;51.538;6.728;2024-02-15T13:46:00;7.90;;;2.13;;
19084;SDS011;9675;51.538;6.728;2024-02-15T13:48:28;5.23;;;1.97;;
19084;SDS011;9675;51.538;6.728;2024-02-15T13:50:56;9.07;;;2.60;;
19084;SDS011;9675;51.538;6.728;2024-02-15T13:53:24;7.43;;;2.67;;
19084;SDS011;9675;51.538;6.728;2024-02-15T13:55:53;9.17;;;2.47;;
19084;SDS011;9675;51.538;6.728;2024-02-15T13:58:20;4.40;;;2.07;;
19084;SDS011;9675;51.538;6.728;2024-02-15T14:00:48;9.97;;;2.23;;
19084;SDS011;9675;51.538;6.728;2024-02-15T14:03:17;10.93;;;2.10;;
19084;SDS011;9675;51.538;6.728;2024-02-15T14:05:46;8.70;;;1.77;;
19084;SDS011;9675;51.538;6.728;2024-02-15T14:08:14;7.03;;;2.23;;
19084;SDS011;9675;51.538;6.728;2024-02-15T14:10:42;14.40;;;2.20;;
19084;SDS011;9675;51.538;6.728;2024-02-15T14:13:09;5.80;;;2.03;;
19084;SDS011;9675;51.538;6.728;2024-02-15T14:15:38;5.60;;;1.97;;
19084;SDS011;9675;51.538;6.728;2024-02-15T14:18:05;6.93;;;2.07;;
19084;SDS011;9675;51.538;6.728;2024-02-15T14:20:37;7.73;;;1.70;;
19084;SDS011;9675;51.538;6.728;2024-02-15T14:23:04;9.83;;;1.87;;
19084;SDS011;9675;51.538;6.728;2024-02-15T14:25:31;6.13;;;2.87;;
19084;SDS011;9675;51.538;6.728;2024-02-15T14:27:59;15.50;;;3.77;;
19084;SDS011;9675;51.538;6.728;2024-02-15T14:30:26;11.17;;;3.90;;
19084;SDS011;9675;51.538;6.728;2024-02-15T14:33:10;10.37;;;3.20;;
19084;SDS011;9675;51.538;6.728;2024-02-15T14:35:42;12.17;;;2.63;;
19084;SDS011;9675;51.538;6.728;2024-02-15T14:38:09;10.80;;;2.70;;
19084;SDS011;9675;51.538;6.728;2024-02-15T14:40:38;7.07;;;2.90;;
19084;SDS011;9675;51.538;6.728;2024-02-15T14:43:08;12.13;;;2.30;;
19084;SDS011;9675;51.538;6.728;2024-02-15T14:45:38;10.80;;;2.97;;
19084;SDS011;9675;51.538;6.728;2024-02-15T14:48:07;6.80;;;3.00;;
19084;SDS011;9675;51.538;6.728;2024-02-15T14:50:35;13.17;;;2.80;;
19084;SDS011;9675;51.538;6.728;2024-02-15T14:53:03;6.57;;;1.70;;
19084;SDS011;9675;51.538;6.728;2024-02-15T14:55:32;5.63;;;1.80;;
19084;SDS011;9675;51.538;6.728;2024-02-15T14:58:00;6.33;;;1.70;;
19084;SDS011;9675;51.538;6.728;2024-02-15T15:00:27;13.53;;;1.93;;
19084;SDS011;9675;51.538;6.728;2024-02-15T15:02:54;11.00;;;1.97;;
19084;SDS011;9675;51.538;6.728;2024-02-15T15:05:22;4.27;;;1.40;;
19084;SDS011;9675;51.538;6.728;2024-02-15T15:08:08;7.33;;;1.27;;
19084;SDS011;9675;51.538;6.728;2024-02-15T15:10:54;5.57;;;1.50;;
19084;SDS011;9675;51.538;6.728;2024-02-15T15:13:39;4.37;;;1.23;;
19084;SDS011;9675;51.538;6.728;2024-02-15T15:16:07;13.90;;;1.63;;